West Palm Beach, FL (33406)

1:09 AM EST on February 07, 2016 (GMT -0500)
LCS Police HQ / EOC | | Change Station
CLOSE
Current Station
Personal Weather Station
Location: Lake Clarke Shores, FL
Elevation: 30 ft
Nearby Weather Stations

Elev 30 ft 26.65 °N, 80.08 °W | Updated 6 seconds ago

Light Rain
Light Rain
-3.5 °F
Feels Like -13 °F
N
3.9
Wind Variable Wind from NW
Gusts 8.6 mph

Today
High -- | Low -- °F
--% Chance of Precip.
Yesterday
High -- | Low -- °F
Precip. -- in
Pressure 29.96 in
Visibility 9.0 miles
Clouds Mostly Cloudy 600 ft
Mostly Cloudy 1600 ft
Overcast 6000 ft
Windchill -13 °F
Dew Point -4.1 °F
Humidity 97%
Rainfall 0.00 in
Snow Depth Not available.
7:02 AM 6:06 PM
Waning Crescent, 2% visible
METAR KPBI 070553Z 28010KT 9SM -RA BKN006 BKN016 OVC060 15/14 A2996 RMK AO2 RAE01B32 SLP144 P0000 60062 T01500144 10228 20150 58019 $
Pressure 29.96 in
Visibility 9.0 miles
Clouds Mostly Cloudy 600 ft
Mostly Cloudy 1600 ft
Overcast 6000 ft
Windchill -13 °F
Dew Point -4.1 °F
Humidity 97%
Rainfall 0.00 in
Snow Depth Not available.
7:02 AM 6:06 PM
Waning Crescent, 2% visible
METAR KPBI 070553Z 28010KT 9SM -RA BKN006 BKN016 OVC060 15/14 A2996 RMK AO2 RAE01B32 SLP144 P0000 60062 T01500144 10228 20150 58019 $

10-Day Weather Forecast

Almanac

Astronomy

Feb. 07, 2016 Rise Set
Actual Time
Civil Twilight
Nautical Twilight
Astronomical Twilight
Moon
Length of Visible Light
Length of Day
Tomorrow will be .
, % of the Moon is Illuminated

Today's Extremes

State Highs State Lows

Community

WunderPhotos

Upload Photos

1,891,172 photos uploaded!

WunderBlog® & News

Nearby

Air Quality

  Air Quality AQ Index Pollutant
Not available.

Snow Depth

Station Depth Elevation

Earthquake Activity

City Distance Mag. Time & Date
Minimum magnitude displayed is 2.5.

Coastal Water Temperatures

Place Temperature

Stations

Nearby Weather Stations

Station Location Temp. Windchill Dew Point Humidity Wind Precip. Elev Updated Type
                   

Watches & Warnings

There are currently no watches in effect.